Time;durP1;ratioP1;P1;durP2;ratioP2;P2;SDS_P1;SDS_P2;PMS_P1;PMS_P2;Temp;Humidity;BMP_temperature;BMP_pressure;BME280_temperature;BME280_humidity;BME280_pressure;Samples;Min_cycle;Max_cycle;Signal;HPM_P1;HPM_P2
2023/02/08 00:00:43;;;;;;;30.23;16.40;;;;;;;5.88;92.85;102756.47;5061048;28;20144;-44
2023/02/08 00:03:12;;;;;;;34.03;17.33;;;;;;;5.89;92.66;102752.63;5090679;28;20170;-44
2023/02/08 00:05:39;;;;;;;30.50;16.80;;;;;;;5.88;92.78;102748.22;5091290;28;20086;-46
2023/02/08 00:08:06;;;;;;;30.25;17.38;;;;;;;5.88;93.01;102753.72;5091037;28;20048;-45
2023/02/08 00:10:33;;;;;;;28.15;16.63;;;;;;;5.92;92.80;102756.78;5087867;28;20040;-46
2023/02/08 00:13:00;;;;;;;30.40;17.83;;;;;;;5.92;92.94;102748.53;5087821;28;20044;-44
2023/02/08 00:15:27;;;;;;;35.90;16.00;;;;;;;5.95;93.18;102750.75;5075202;28;20048;-50
2023/02/08 00:17:54;;;;;;;28.17;15.63;;;;;;;5.99;93.19;102743.59;5073918;28;20115;-47
2023/02/08 00:20:20;;;;;;;28.58;15.75;;;;;;;6.00;93.17;102743.34;5080916;28;20044;-45
2023/02/08 00:22:47;;;;;;;34.63;15.85;;;;;;;5.99;92.99;102741.69;5086029;28;20047;-50
2023/02/08 00:25:14;;;;;;;32.00;16.20;;;;;;;6.01;93.36;102744.19;5086960;28;20064;-45
2023/02/08 00:27:41;;;;;;;31.33;16.60;;;;;;;6.04;93.28;102743.63;5083760;28;20070;-45
2023/02/08 00:30:09;;;;;;;32.58;17.73;;;;;;;6.04;93.11;102733.47;5089188;28;20047;-46
2023/02/08 00:32:36;;;;;;;33.58;16.00;;;;;;;6.05;93.23;102734.31;5089985;28;20040;-45
2023/02/08 00:35:03;;;;;;;26.45;15.68;;;;;;;6.07;93.53;102732.09;5090323;28;20040;-46
2023/02/08 00:37:29;;;;;;;25.55;15.85;;;;;;;6.08;93.25;102729.09;5090060;28;20059;-51
2023/02/08 00:39:58;;;;;;;27.75;15.27;;;;;;;6.07;93.46;102712.84;5089927;28;20036;-46
2023/02/08 00:42:26;;;;;;;27.48;16.20;;;;;;;6.06;93.48;102709.28;5090145;28;20485;-47
2023/02/08 00:44:53;;;;;;;33.30;16.48;;;;;;;6.06;93.60;102713.97;5090064;28;20070;-44
2023/02/08 00:47:20;;;;;;;35.63;18.98;;;;;;;6.06;93.60;102713.97;5081337;28;20071;-44
2023/02/08 00:49:47;;;;;;;26.63;16.13;;;;;;;6.09;93.88;102710.66;5089998;28;20520;-45
2023/02/08 00:52:13;;;;;;;37.20;19.42;;;;;;;6.11;93.72;102701.09;5089763;28;20062;-45
2023/02/08 00:54:41;;;;;;;27.83;16.30;;;;;;;6.11;93.66;102694.75;5089931;28;20391;-47
2023/02/08 00:57:08;;;;;;;29.55;16.58;;;;;;;6.11;93.92;102701.09;5089690;28;20044;-45
2023/02/08 00:59:34;;;;;;;28.73;16.92;;;;;;;6.12;93.77;102691.72;5072141;28;20040;-44
2023/02/08 01:02:01;;;;;;;34.53;16.92;;;;;;;6.13;93.96;102695.31;5089462;28;20048;-46
2023/02/08 01:04:28;;;;;;;34.95;17.30;;;;;;;6.11;93.92;102697.50;5097174;28;20046;-45
2023/02/08 01:06:55;;;;;;;29.15;15.55;;;;;;;6.12;93.91;102685.38;5072409;28;20047;-47
2023/02/08 01:09:21;;;;;;;29.13;14.60;;;;;;;6.12;93.89;102693.63;5089564;28;20476;-47
2023/02/08 01:11:48;;;;;;;25.15;15.27;;;;;;;6.14;93.87;102688.72;5089434;28;20448;-46
2023/02/08 01:14:15;;;;;;;30.20;13.63;;;;;;;6.14;94.08;102677.72;5089991;28;20047;-44
2023/02/08 01:16:42;;;;;;;24.05;14.90;;;;;;;6.15;94.03;102668.34;5089812;28;20562;-44
2023/02/08 01:19:09;;;;;;;27.38;15.15;;;;;;;6.17;94.28;102660.66;5089288;28;20131;-44
2023/02/08 01:21:39;;;;;;;28.90;16.58;;;;;;;6.19;94.29;102657.66;5090048;28;20371;-45
2023/02/08 01:24:07;;;;;;;29.67;15.25;;;;;;;6.20;94.13;102659.28;5088114;28;20044;-52
2023/02/08 01:26:34;;;;;;;34.92;15.80;;;;;;;6.20;94.29;102648.28;5089454;28;20401;-44
2023/02/08 01:29:02;;;;;;;26.85;13.50;;;;;;;6.20;94.44;102651.88;5087650;28;20071;-45
2023/02/08 01:31:34;;;;;;;28.25;14.25;;;;;;;6.21;94.56;102649.94;5063881;28;20062;-44
2023/02/08 01:34:03;;;;;;;25.98;14.85;;;;;;;6.21;94.59;102648.03;5075366;28;20098;-50
2023/02/08 01:36:31;;;;;;;25.60;14.25;;;;;;;6.20;94.38;102642.78;5088882;28;20070;-45
2023/02/08 01:38:58;;;;;;;24.25;14.57;;;;;;;6.19;94.54;102638.41;5071405;28;20493;-45
2023/02/08 01:41:28;;;;;;;28.60;14.00;;;;;;;6.20;94.75;102631.78;5088259;28;20131;-44
2023/02/08 01:44:02;;;;;;;25.95;12.25;;;;;;;6.20;94.48;102632.63;5064938;28;20060;-46
2023/02/08 01:46:29;;;;;;;24.80;11.55;;;;;;;6.20;94.57;102627.13;5086496;28;20105;-44
2023/02/08 01:49:01;;;;;;;22.52;13.52;;;;;;;6.22;94.54;102627.69;5083667;28;20067;-46
2023/02/08 01:51:33;;;;;;;23.73;12.00;;;;;;;6.22;94.56;102618.63;5087249;28;20046;-49
2023/02/08 01:54:02;;;;;;;28.50;12.43;;;;;;;6.22;94.73;102611.19;5088932;28;20063;-45
2023/02/08 01:56:35;;;;;;;20.45;12.43;;;;;;;6.22;94.91;102602.94;5086722;28;20144;-44
2023/02/08 01:59:05;;;;;;;23.65;12.32;;;;;;;6.22;94.66;102611.19;5086252;28;20039;-44
2023/02/08 02:01:33;;;;;;;20.08;11.80;;;;;;;6.24;94.75;102606.25;5082593;28;20401;-45
2023/02/08 02:04:03;;;;;;;30.80;13.40;;;;;;;6.26;94.82;102608.72;5088838;28;20044;-44
2023/02/08 02:06:34;;;;;;;25.38;12.43;;;;;;;6.25;95.00;102596.88;5088755;28;20062;-45
2023/02/08 02:09:24;;;;;;;24.77;13.15;;;;;;;6.26;95.00;102586.72;5089022;28;20043;-45
2023/02/08 02:11:53;;;;;;;24.67;12.25;;;;;;;6.26;95.16;102586.72;5080261;28;20036;-44
2023/02/08 02:14:20;;;;;;;26.15;13.20;;;;;;;6.25;94.91;102577.63;5089099;28;20044;-44
2023/02/08 02:16:47;;;;;;;22.55;11.27;;;;;;;6.23;95.06;102582.56;5088853;28;20043;-46
2023/02/08 02:19:41;;;;;;;18.83;11.52;;;;;;;6.22;94.74;102571.84;5088058;28;20035;-45
2023/02/08 02:22:53;;;;;;;22.40;12.85;;;;;;;6.21;95.17;102576.53;5038265;28;20056;-45
2023/02/08 02:25:55;;;;;;;14.20;9.02;;;;;;;6.21;95.32;102571.03;5088404;28;20052;-45
2023/02/08 02:28:24;;;;;;;22.98;12.85;;;;;;;6.18;95.29;102566.06;5062607;28;20055;-51
2023/02/08 02:30:57;;;;;;;28.35;12.93;;;;;;;6.13;95.11;102552.31;5089013;28;20036;-44
2023/02/08 02:33:31;;;;;;;;;;;;;;;6.05;95.16;102544.59;5084277;28;20039;-45
2023/02/08 02:36:31;;;;;;;25.27;12.52;;;;;;;5.93;95.19;102550.31;5087827;28;19920;-44
2023/02/08 02:39:48;;;;;;;25.50;13.60;;;;;;;5.77;95.07;102537.59;5087671;28;20052;-45
2023/02/08 02:45:35;;;;;;;28.50;14.18;;;;;;;5.59;95.18;102531.78;5083449;28;20390;-46
2023/02/08 02:48:16;;;;;;;35.67;14.23;;;;;;;5.50;95.41;102523.22;5081485;28;20054;-47
2023/02/08 02:50:47;;;;;;;22.30;12.18;;;;;;;5.46;95.68;102517.41;5084356;28;20040;-49
2023/02/08 02:53:33;;;;;;;22.30;12.40;;;;;;;5.41;95.40;102513.81;5085593;28;20067;-46
2023/02/08 02:56:23;;;;;;;20.02;10.70;;;;;;;5.30;95.15;102523.94;5084566;28;20036;-44
2023/02/08 02:58:52;;;;;;;22.75;11.38;;;;;;;5.25;95.20;102520.31;5068731;28;20040;-44
2023/02/08 03:01:28;;;;;;;21.65;11.02;;;;;;;5.19;95.31;102519.47;5104927;22;20126;-44
2023/02/08 03:03:55;;;;;;;21.33;10.52;;;;;;;5.09;95.30;102511.16;5063242;28;20056;-47
2023/02/08 03:07:01;;;;;;;19.90;10.27;;;;;;;5.04;95.11;102519.38;5053504;28;20071;-45
2023/02/08 03:10:05;;;;;;;15.52;9.18;;;;;;;4.95;95.25;102520.97;5052258;28;20448;-46
2023/02/08 03:13:03;;;;;;;21.63;10.60;;;;;;;4.85;95.09;102508.00;5048376;28;20052;-46
2023/02/08 03:15:39;;;;;;;15.70;7.72;;;;;;;4.80;95.38;102502.47;5017526;28;20069;-50
2023/02/08 03:18:25;;;;;;;17.67;8.48;;;;;;;4.75;95.05;102493.38;5048595;28;20063;-45
2023/02/08 03:21:16;;;;;;;15.93;6.32;;;;;;;4.75;95.46;102499.72;5046282;28;20133;-44
2023/02/08 03:24:06;;;;;;;11.10;4.75;;;;;;;4.76;95.37;102495.06;5048723;28;20056;-45
2023/02/08 03:26:44;;;;;;;10.80;4.07;;;;;;;4.75;95.19;102488.72;5045704;28;20069;-45
2023/02/08 03:29:57;;;;;;;13.15;5.35;;;;;;;4.73;95.08;102485.44;5049364;28;20057;-44
2023/02/08 03:32:24;;;;;;;9.43;3.60;;;;;;;4.72;94.67;102481.03;5019722;28;20063;-45
2023/02/08 03:35:29;;;;;;;9.35;4.75;;;;;;;4.68;94.65;102479.09;5049888;28;20045;-44
2023/02/08 03:38:20;;;;;;;11.82;4.40;;;;;;;4.67;95.01;102482.91;5046101;28;20466;-45
2023/02/08 03:40:52;;;;;;;11.45;3.33;;;;;;;4.68;94.57;102476.34;5038678;28;20053;-48
2023/02/08 03:43:34;;;;;;;5.72;2.17;;;;;;;4.67;94.59;102474.69;5048917;28;20057;-44
2023/02/08 03:46:10;;;;;;;4.20;3.20;;;;;;;4.67;94.76;102475.50;5047579;28;20048;-47
2023/02/08 03:48:39;;;;;;;9.18;3.30;;;;;;;4.66;94.45;102484.81;5047440;28;20368;-44
2023/02/08 03:51:08;;;;;;;7.40;2.88;;;;;;;4.68;94.61;102479.09;5048512;28;20041;-45
2023/02/08 03:53:39;;;;;;;13.02;3.97;;;;;;;4.65;94.35;102476.84;5049734;28;20051;-45
2023/02/08 03:56:14;;;;;;;12.40;4.55;;;;;;;4.65;94.06;102482.34;5044704;28;20044;-47
2023/02/08 03:58:49;;;;;;;6.90;3.33;;;;;;;4.63;94.03;102484.53;5039765;28;20059;-44
2023/02/08 04:01:24;;;;;;;7.85;3.85;;;;;;;4.61;94.27;102492.19;5045957;28;20524;-49
2023/02/08 04:03:52;;;;;;;7.75;3.38;;;;;;;4.60;94.04;102496.84;5059983;28;20442;-45
2023/02/08 04:06:21;;;;;;;14.18;4.78;;;;;;;4.59;94.15;102494.38;5065283;28;20142;-45
2023/02/08 04:08:48;;;;;;;8.02;3.78;;;;;;;4.59;94.32;102488.88;5067785;28;20045;-44
2023/02/08 04:11:15;;;;;;;9.32;3.33;;;;;;;4.60;94.19;102482.31;5064859;28;20041;-44
2023/02/08 04:13:42;;;;;;;8.27;2.63;;;;;;;4.59;94.05;102478.75;5066824;28;20045;-44
2023/02/08 04:16:11;;;;;;;13.13;3.92;;;;;;;4.61;94.52;102481.22;5045741;28;20049;-45
2023/02/08 04:18:38;;;;;;;12.00;3.53;;;;;;;4.62;94.08;102477.38;5066189;28;20411;-44
2023/02/08 04:21:04;;;;;;;11.38;3.83;;;;;;;4.66;94.45;102478.53;5060048;28;20049;-47
2023/02/08 04:23:31;;;;;;;13.82;3.30;;;;;;;4.66;94.02;102484.00;5064477;28;20056;-48
2023/02/08 04:25:58;;;;;;;11.85;4.45;;;;;;;4.66;94.21;102489.50;5068676;28;20056;-45
2023/02/08 04:28:25;;;;;;;9.18;3.33;;;;;;;4.66;94.41;102492.25;5069824;28;20436;-44
2023/02/08 04:30:55;;;;;;;17.58;3.30;;;;;;;4.64;94.11;102499.88;5066174;28;20036;-44
2023/02/08 04:33:22;;;;;;;18.92;4.10;;;;;;;4.63;94.24;102501.78;5038199;28;20060;-45
2023/02/08 04:35:49;;;;;;;15.73;3.75;;;;;;;4.62;94.31;102499.31;5065046;28;20055;-44
2023/02/08 04:38:15;;;;;;;7.07;3.28;;;;;;;4.61;94.54;102503.16;5068574;28;20051;-44
2023/02/08 04:40:42;;;;;;;11.00;3.03;;;;;;;4.59;94.18;102527.28;5062811;28;20405;-45
2023/02/08 04:43:09;;;;;;;16.80;3.88;;;;;;;4.60;94.31;102528.94;5067984;28;20076;-44
2023/02/08 04:45:36;;;;;;;9.18;2.72;;;;;;;4.62;94.47;102530.34;5065067;28;20401;-44
2023/02/08 04:48:05;;;;;;;12.48;4.03;;;;;;;4.62;94.59;102524.84;5066673;28;20052;-45
2023/02/08 04:50:34;;;;;;;11.48;2.47;;;;;;;4.61;94.37;102512.22;5044993;28;20044;-44
2023/02/08 04:53:00;;;;;;;9.65;2.50;;;;;;;4.64;94.58;102508.13;5058216;28;20105;-46
2023/02/08 04:55:27;;;;;;;6.60;2.58;;;;;;;4.66;94.71;102500.47;5059258;28;20068;-44
2023/02/08 04:57:54;;;;;;;13.77;2.63;;;;;;;4.67;94.55;102497.44;5066456;28;20140;-51
2023/02/08 05:00:21;;;;;;;10.90;2.60;;;;;;;4.68;94.84;102484.56;5063014;28;20046;-44
2023/02/08 05:02:53;;;;;;;12.98;2.47;;;;;;;4.69;94.91;102473.31;5051472;28;20111;-44
2023/02/08 05:05:20;;;;;;;8.07;2.47;;;;;;;4.70;94.59;102466.75;5055208;28;20075;-44
2023/02/08 05:07:46;;;;;;;7.85;2.88;;;;;;;4.71;94.75;102453.88;5044664;28;20053;-45
2023/02/08 05:10:13;;;;;;;6.45;2.55;;;;;;;4.70;94.78;102442.06;5051895;28;20533;-47
2023/02/08 05:12:40;;;;;;;8.77;2.70;;;;;;;4.69;94.68;102428.59;5058504;28;20188;-45
2023/02/08 05:15:07;;;;;;;10.93;3.20;;;;;;;4.67;94.86;102426.13;5055543;28;20051;-44
2023/02/08 05:17:34;;;;;;;5.68;2.40;;;;;;;4.63;94.83;102419.50;5046501;28;20127;-46
2023/02/08 05:20:02;;;;;;;10.05;2.33;;;;;;;4.62;95.01;102423.34;5054907;28;20795;-44
2023/02/08 05:22:29;;;;;;;15.60;2.72;;;;;;;4.62;94.95;102411.56;5049492;28;20048;-45
2023/02/08 05:24:55;;;;;;;13.70;2.70;;;;;;;4.61;94.62;102404.41;5051381;28;20065;-50
2023/02/08 05:27:22;;;;;;;10.27;2.78;;;;;;;4.59;94.68;102398.38;5041123;28;20044;-44
2023/02/08 05:29:49;;;;;;;16.15;4.65;;;;;;;4.59;94.77;102406.59;5050667;28;20045;-44
2023/02/08 05:32:15;;;;;;;13.65;3.13;;;;;;;4.59;94.83;102407.41;5055442;28;20048;-45
2023/02/08 05:34:42;;;;;;;11.10;3.15;;;;;;;4.58;94.59;102415.94;5060823;28;20517;-44
2023/02/08 05:37:09;;;;;;;12.38;2.38;;;;;;;4.56;94.74;102418.91;5046346;28;20045;-44
2023/02/08 05:39:36;;;;;;;15.70;3.10;;;;;;;4.55;94.45;102430.16;5051707;28;20134;-48
2023/02/08 05:42:03;;;;;;;14.43;2.88;;;;;;;4.55;94.72;102416.44;5048371;28;20049;-44
2023/02/08 05:44:30;;;;;;;13.13;2.15;;;;;;;4.52;94.53;102397.78;5058545;28;20398;-49
2023/02/08 05:46:56;;;;;;;8.85;2.22;;;;;;;4.51;94.65;102398.84;5046711;28;20049;-44
2023/02/08 05:49:23;;;;;;;7.35;2.50;;;;;;;4.48;94.48;102391.16;5049018;28;20436;-44
2023/02/08 05:51:50;;;;;;;7.50;2.05;;;;;;;4.45;94.46;102394.44;5046774;28;20147;-45
2023/02/08 05:54:17;;;;;;;13.82;2.83;;;;;;;4.40;94.42;102395.22;5038220;28;20118;-48
2023/02/08 05:56:44;;;;;;;6.47;2.38;;;;;;;4.39;94.20;102390.00;5044409;28;20045;-48
2023/02/08 05:59:10;;;;;;;11.93;2.35;;;;;;;4.37;94.51;102394.94;5044898;28;20406;-46
2023/02/08 06:01:37;;;;;;;13.02;2.53;;;;;;;4.36;94.29;102390.53;5054618;28;20139;-44
2023/02/08 06:04:04;;;;;;;6.22;2.25;;;;;;;4.35;94.38;102405.31;5050510;28;20516;-49
2023/02/08 06:06:31;;;;;;;10.35;2.05;;;;;;;4.32;94.32;102387.50;5040258;28;20040;-44
2023/02/08 06:08:58;;;;;;;5.30;2.70;;;;;;;4.30;94.27;102376.78;5041749;28;20052;-50
2023/02/08 06:11:24;;;;;;;8.25;1.98;;;;;;;4.28;94.10;102373.50;5053732;28;20036;-44
2023/02/08 06:13:51;;;;;;;13.02;2.53;;;;;;;4.29;94.07;102357.84;5048900;28;20044;-48
2023/02/08 06:16:18;;;;;;;17.95;2.85;;;;;;;4.26;93.97;102361.94;5045777;28;20051;-45
2023/02/08 06:18:46;;;;;;;9.18;2.20;;;;;;;4.25;94.38;102367.72;5046188;28;20045;-46
2023/02/08 06:21:13;;;;;;;14.13;3.78;;;;;;;4.23;94.41;102370.72;5045768;28;20060;-44
2023/02/08 06:23:40;;;;;;;12.02;3.05;;;;;;;4.22;94.26;102395.63;5045814;28;20049;-48
2023/02/08 06:26:07;;;;;;;10.35;2.20;;;;;;;4.20;94.24;102386.88;5048456;28;20056;-49
2023/02/08 06:28:33;;;;;;;12.10;2.60;;;;;;;4.20;94.40;102382.22;5048485;28;20044;-47
2023/02/08 06:31:00;;;;;;;14.52;2.55;;;;;;;4.18;93.92;102378.88;5053015;28;20485;-45
2023/02/08 06:33:27;;;;;;;6.93;2.10;;;;;;;4.17;94.11;102382.72;5053286;28;20055;-46
2023/02/08 06:35:53;;;;;;;11.30;2.88;;;;;;;4.18;93.73;102400.00;5046571;28;20813;-44
2023/02/08 06:38:20;;;;;;;8.25;2.78;;;;;;;4.17;93.91;102393.69;5048108;28;20056;-44
2023/02/08 06:40:48;;;;;;;7.70;2.30;;;;;;;4.14;93.96;102388.75;5049388;28;20045;-45
2023/02/08 06:43:15;;;;;;;8.75;2.38;;;;;;;4.08;93.64;102376.06;5051178;28;20131;-46
2023/02/08 06:45:46;;;;;;;8.60;3.15;;;;;;;4.04;93.78;102385.91;5053503;28;20136;-44
2023/02/08 06:48:13;;;;;;;14.48;3.08;;;;;;;3.99;93.84;102388.63;5051791;28;20086;-45
2023/02/08 06:50:40;;;;;;;6.97;2.17;;;;;;;3.92;93.73;102390.72;5050435;28;20037;-48
2023/02/08 06:53:07;;;;;;;10.68;2.72;;;;;;;3.87;94.01;102393.44;5045712;28;20038;-47
2023/02/08 06:55:34;;;;;;;20.02;3.15;;;;;;;3.83;94.23;102384.09;5049687;28;20561;-44
2023/02/08 06:58:01;;;;;;;8.60;2.78;;;;;;;3.81;94.02;102389.00;5047205;28;20060;-47
2023/02/08 07:00:28;;;;;;;3.70;2.45;;;;;;;3.79;94.35;102396.63;5058425;28;20041;-45
2023/02/08 07:02:54;;;;;;;5.93;2.05;;;;;;;3.75;93.93;102384.56;5047755;28;20048;-47
2023/02/08 07:05:21;;;;;;;10.95;2.28;;;;;;;3.72;94.11;102393.31;5052144;28;20048;-45
2023/02/08 07:07:48;;;;;;;10.73;2.75;;;;;;;3.67;94.08;102377.66;5049726;28;20124;-43
2023/02/08 07:10:15;;;;;;;12.05;3.92;;;;;;;3.66;93.96;102380.63;5043274;28;20060;-45
2023/02/08 07:12:42;;;;;;;8.93;3.00;;;;;;;3.67;94.34;102376.81;5024379;28;20072;-43
2023/02/08 07:15:12;;;;;;;14.57;2.50;;;;;;;3.69;94.13;102374.63;5048785;28;20051;-48
2023/02/08 07:17:39;;;;;;;13.70;3.05;;;;;;;3.72;94.07;102374.13;5051780;28;20466;-46
2023/02/08 07:20:06;;;;;;;8.07;3.60;;;;;;;3.73;94.25;102370.31;5050168;28;20064;-44
2023/02/08 07:22:33;;;;;;;8.02;2.65;;;;;;;3.71;93.78;102352.50;5046602;28;20095;-43
2023/02/08 07:24:59;;;;;;;15.52;3.15;;;;;;;3.68;94.08;102362.03;5045413;28;20132;-44
2023/02/08 07:27:26;;;;;;;7.25;2.83;;;;;;;3.63;94.01;102353.75;5044987;28;20073;-45
2023/02/08 07:29:53;;;;;;;9.85;2.22;;;;;;;3.62;93.95;102350.22;5045477;28;20045;-45
2023/02/08 07:32:20;;;;;;;17.50;4.05;;;;;;;3.61;94.13;102342.25;5044879;28;20111;-49
2023/02/08 07:34:47;;;;;;;10.55;2.97;;;;;;;3.67;94.45;102349.44;5049451;28;20432;-44
2023/02/08 07:37:13;;;;;;;14.73;2.50;;;;;;;3.72;94.53;102352.22;5048157;28;20045;-49
2023/02/08 07:39:40;;;;;;;13.68;3.90;;;;;;;3.77;94.12;102346.78;5051263;28;20045;-44
2023/02/08 07:42:08;;;;;;;10.57;3.17;;;;;;;3.81;94.21;102356.13;5051372;28;20056;-46
2023/02/08 07:44:38;;;;;;;14.73;4.15;;;;;;;3.85;94.32;102340.00;5051251;28;20441;-44
2023/02/08 07:47:05;;;;;;;10.30;2.13;;;;;;;3.88;93.87;102340.31;5051086;28;20072;-45
2023/02/08 07:49:32;;;;;;;13.05;2.38;;;;;;;3.92;94.03;102357.06;5050148;28;20037;-44
2023/02/08 07:52:00;;;;;;;11.10;2.65;;;;;;;3.96;94.33;102361.75;5054515;28;20119;-44
2023/02/08 07:54:27;;;;;;;11.73;2.40;;;;;;;4.00;93.99;102351.91;5056651;28;20438;-44
2023/02/08 07:56:54;;;;;;;8.93;1.90;;;;;;;4.02;93.97;102344.25;5051221;28;20069;-44
2023/02/08 07:59:21;;;;;;;6.53;1.90;;;;;;;4.05;94.17;102340.97;5050779;28;20049;-44
2023/02/08 08:01:48;;;;;;;10.50;2.17;;;;;;;4.06;94.08;102333.56;5053324;28;20053;-49
2023/02/08 08:04:15;;;;;;;14.15;2.35;;;;;;;4.07;93.91;102335.25;5061778;28;20165;-44
2023/02/08 08:06:42;;;;;;;11.93;2.85;;;;;;;4.06;93.81;102337.16;5075994;28;20076;-45
2023/02/08 08:09:08;;;;;;;10.20;2.20;;;;;;;4.07;93.90;102324.28;5084159;28;20409;-45
2023/02/08 08:11:35;;;;;;;17.25;3.13;;;;;;;4.10;93.78;102319.06;5068659;28;20039;-44
2023/02/08 08:14:02;;;;;;;10.40;3.35;;;;;;;4.10;93.64;102316.34;5080841;28;20028;-45
2023/02/08 08:16:29;;;;;;;6.75;2.00;;;;;;;4.08;94.03;102317.69;5069515;28;20062;-44
2023/02/08 08:18:55;;;;;;;7.45;2.22;;;;;;;4.08;93.80;102317.69;5082330;28;20245;-47
2023/02/08 08:21:22;;;;;;;5.78;1.67;;;;;;;4.07;93.88;102300.44;5087186;28;20044;-44
2023/02/08 08:23:49;;;;;;;10.98;1.70;;;;;;;4.09;94.04;102308.38;5088287;28;20056;-43
2023/02/08 08:26:19;;;;;;;14.23;2.28;;;;;;;4.11;93.67;102290.59;5088531;28;20421;-44
2023/02/08 08:28:46;;;;;;;4.97;2.10;;;;;;;4.11;93.95;102296.06;5085538;28;20044;-44
2023/02/08 08:31:21;;;;;;;8.98;2.95;;;;;;;4.18;93.78;102291.16;5088879;28;20377;-52
2023/02/08 08:33:49;;;;;;;6.20;1.70;;;;;;;4.27;93.54;102284.13;5097057;28;20450;-44
2023/02/08 08:36:17;;;;;;;5.70;1.90;;;;;;;4.33;93.32;102274.00;5086921;28;20048;-48
2023/02/08 08:38:43;;;;;;;9.90;2.13;;;;;;;4.41;93.38;102269.91;5084947;28;20140;-46
2023/02/08 08:41:14;;;;;;;1.52;1.25;;;;;;;4.49;93.24;102269.41;5080794;28;20454;-43
2023/02/08 08:43:41;;;;;;;8.23;2.20;;;;;;;4.54;93.12;102255.72;5084504;28;20050;-45
2023/02/08 08:46:09;;;;;;;9.27;1.98;;;;;;;4.62;92.77;102252.47;5082801;28;20050;-48
2023/02/08 08:48:37;;;;;;;2.55;1.02;;;;;;;4.66;92.69;102242.63;5085959;28;20126;-50
2023/02/08 08:51:05;;;;;;;10.18;1.85;;;;;;;4.72;92.33;102234.13;5084139;28;20054;-49
2023/02/08 08:53:33;;;;;;;6.55;1.40;;;;;;;4.81;92.16;102245.41;5083648;28;20051;-43
2023/02/08 08:56:03;;;;;;;5.47;1.23;;;;;;;4.92;92.13;102247.06;5081296;28;20486;-44
2023/02/08 08:58:31;;;;;;;7.65;1.85;;;;;;;4.96;91.75;102239.94;5084625;28;20043;-51
2023/02/08 09:00:59;;;;;;;11.00;1.65;;;;;;;5.04;91.60;102244.91;5086013;28;20497;-46
2023/02/08 09:03:27;;;;;;;11.93;1.55;;;;;;;5.12;91.24;102251.75;5087712;28;20424;-43
2023/02/08 09:05:55;;;;;;;11.45;1.50;;;;;;;5.16;91.23;102250.13;5084386;28;20490;-44
2023/02/08 09:08:21;;;;;;;6.20;1.73;;;;;;;5.20;91.08;102246.56;5083446;28;20557;-48
2023/02/08 09:10:49;;;;;;;10.88;1.30;;;;;;;5.24;91.00;102252.34;5084480;28;20078;-44
2023/02/08 09:13:18;;;;;;;4.53;1.38;;;;;;;5.28;91.07;102250.69;5087366;28;20032;-44
2023/02/08 09:15:46;;;;;;;5.60;1.33;;;;;;;5.31;90.79;102241.91;5084673;28;20551;-47
2023/02/08 09:18:13;;;;;;;6.00;1.75;;;;;;;5.34;90.72;102244.94;5090346;28;20044;-47
2023/02/08 09:20:40;;;;;;;13.70;2.08;;;;;;;5.38;90.72;102242.44;5089545;28;20044;-45
2023/02/08 09:23:07;;;;;;;8.02;1.33;;;;;;;5.44;90.42;102244.94;5086998;28;20374;-44
2023/02/08 09:25:35;;;;;;;9.73;1.50;;;;;;;5.50;90.48;102243.84;5064108;28;20109;-52
2023/02/08 09:28:03;;;;;;;6.32;1.67;;;;;;;5.56;90.19;102235.59;5069897;28;20082;-44
2023/02/08 09:30:30;;;;;;;5.32;1.40;;;;;;;5.62;89.73;102242.72;5084328;28;20040;-50
2023/02/08 09:32:57;;;;;;;4.15;1.02;;;;;;;5.67;89.73;102234.47;5088001;28;20101;-44
2023/02/08 09:35:24;;;;;;;6.50;1.48;;;;;;;5.73;89.56;102219.63;5087124;28;20075;-44
2023/02/08 09:37:56;;;;;;;13.15;2.42;;;;;;;5.80;89.64;102217.44;5086208;28;20123;-50
2023/02/08 09:40:25;;;;;;;;;;;;;;;5.86;89.28;102221.84;5082404;28;20048;-43
2023/02/08 09:43:10;;;;;;;9.95;1.48;;;;;;;5.90;89.36;102215.53;5085347;28;19959;-43
2023/02/08 09:45:45;;;;;;;7.65;2.03;;;;;;;5.97;89.26;102198.75;5079742;28;20048;-45
2023/02/08 09:48:30;;;;;;;7.72;2.58;;;;;;;6.05;88.97;102198.16;5085472;28;20038;-49
2023/02/08 09:51:09;;;;;;;;;;;;;;;6.13;88.80;102183.84;5080786;28;20454;-44
2023/02/08 09:53:43;;;;;;;11.15;1.92;;;;;;;6.20;88.59;102180.78;5075834;28;20031;-43
2023/02/08 09:56:13;;;;;;;9.93;1.50;;;;;;;6.28;88.23;102180.19;5088993;28;20048;-45
2023/02/08 09:58:49;;;;;;;7.38;1.85;;;;;;;6.38;88.25;102182.94;5089364;28;20046;-44
2023/02/08 10:01:24;;;;;;;5.38;1.40;;;;;;;6.46;87.96;102191.38;5088721;28;20135;-44
2023/02/08 10:03:56;;;;;;;7.35;1.85;;;;;;;6.52;87.64;102182.03;5088992;28;20501;-45
2023/02/08 10:06:23;;;;;;;8.70;1.35;;;;;;;6.57;87.18;102173.72;5089285;28;20067;-44
2023/02/08 10:08:52;;;;;;;5.65;1.15;;;;;;;6.65;86.97;102173.13;5089713;28;20801;-43
2023/02/08 10:11:40;;;;;;;9.32;1.40;;;;;;;6.69;86.87;102174.22;5092827;28;20040;-48
2023/02/08 10:14:19;;;;;;;5.90;1.10;;;;;;;6.74;86.81;102168.69;5052674;28;20051;-43
2023/02/08 10:17:01;;;;;;;5.60;1.45;;;;;;;6.80;86.74;102174.16;5088922;28;20417;-44
2023/02/08 10:19:54;;;;;;;5.80;1.60;;;;;;;6.86;86.71;102167.53;5088673;28;20060;-44
2023/02/08 10:22:45;;;;;;;4.95;1.38;;;;;;;6.91;86.51;102153.72;5088224;28;20044;-44
2023/02/08 10:25:29;;;;;;;5.25;1.63;;;;;;;6.98;86.33;102151.47;5088989;28;20047;-44
2023/02/08 10:28:17;;;;;;;6.10;2.13;;;;;;;7.03;86.02;102134.88;5089106;28;20043;-44
2023/02/08 10:31:02;;;;;;;11.38;1.50;;;;;;;7.05;85.88;102140.94;5088541;28;20098;-43
2023/02/08 10:33:40;;;;;;;5.65;1.77;;;;;;;7.09;85.69;102139.25;5090565;28;20036;-44
2023/02/08 10:36:19;;;;;;;7.55;2.20;;;;;;;7.14;85.71;102139.22;5088486;28;20060;-45
2023/02/08 10:38:49;;;;;;;11.35;2.35;;;;;;;7.17;85.35;102141.41;5088743;28;20480;-44
2023/02/08 10:41:23;;;;;;;6.93;1.73;;;;;;;7.21;84.99;102135.00;5087438;28;20048;-45
2023/02/08 10:44:21;;;;;;;14.15;1.63;;;;;;;7.26;85.08;102139.66;5089246;28;20047;-44
2023/02/08 10:47:18;;;;;;;5.05;1.60;;;;;;;7.31;84.79;102125.81;5088732;28;20048;-44
2023/02/08 10:50:04;;;;;;;6.47;1.48;;;;;;;7.35;84.58;102133.25;5082136;28;20060;-44
2023/02/08 10:52:31;;;;;;;7.15;1.35;;;;;;;7.42;84.31;102132.88;5088487;28;20418;-47
2023/02/08 10:54:58;;;;;;;9.35;1.20;;;;;;;7.46;84.08;102133.97;5087796;28;20131;-44
2023/02/08 10:57:29;;;;;;;15.55;1.67;;;;;;;7.50;83.78;102136.94;5088517;28;20402;-45
2023/02/08 11:00:03;;;;;;;8.00;1.63;;;;;;;7.57;83.70;102138.22;5088985;28;20131;-44
2023/02/08 11:02:38;;;;;;;7.32;1.20;;;;;;;7.63;83.24;102128.81;5069880;28;20048;-44
2023/02/08 11:05:09;;;;;;;8.50;2.42;;;;;;;7.68;82.97;102137.03;5070181;28;20054;-44
2023/02/08 11:07:39;;;;;;;5.25;1.13;;;;;;;7.72;82.72;102120.72;5088484;28;20090;-44
2023/02/08 11:10:17;;;;;;;4.50;1.67;;;;;;;7.77;82.23;102121.50;5088173;28;20052;-45
2023/02/08 11:12:56;;;;;;;5.05;0.95;;;;;;;7.82;81.81;102131.63;5090156;28;20525;-45
2023/02/08 11:15:28;;;;;;;8.38;2.15;;;;;;;7.84;81.05;102121.97;5087929;28;20139;-44
2023/02/08 11:18:00;;;;;;;3.80;1.05;;;;;;;7.89;80.88;102121.06;5100463;28;20398;-50
2023/02/08 11:20:35;;;;;;;;;;;;;;;7.90;80.42;102108.94;5088440;28;20052;-44
2023/02/08 11:23:15;;;;;;;7.65;1.10;;;;;;;7.92;80.09;102099.25;5088856;28;19923;-45
2023/02/08 11:25:42;;;;;;;5.78;1.23;;;;;;;7.94;79.65;102094.25;5092195;28;20241;-53
2023/02/08 11:28:41;;;;;;;5.55;1.17;;;;;;;7.98;79.47;102092.56;5092303;28;20048;-44
2023/02/08 11:31:19;;;;;;;5.15;1.38;;;;;;;8.01;79.10;102080.13;5047113;28;20052;-44
2023/02/08 11:34:01;;;;;;;5.45;1.13;;;;;;;8.06;78.85;102079.22;5094467;28;20493;-44
2023/02/08 11:36:30;;;;;;;5.85;0.98;;;;;;;8.10;78.58;102072.03;5091963;28;20044;-47
2023/02/08 11:39:02;;;;;;;3.47;1.48;;;;;;;8.14;78.25;102073.06;5091643;28;20117;-44
2023/02/08 11:41:29;;;;;;;4.78;1.00;;;;;;;8.18;78.03;102057.56;5073453;28;20131;-44
2023/02/08 11:44:01;;;;;;;6.35;1.00;;;;;;;8.21;77.74;102049.50;5091304;28;20051;-44
2023/02/08 11:46:31;;;;;;;6.45;1.25;;;;;;;8.27;77.73;102050.28;5091592;28;20040;-44
2023/02/08 11:48:58;;;;;;;8.73;1.35;;;;;;;8.33;77.61;102041.63;5091571;28;20469;-44